sensor_id;sensor_type;location;lat;lon;timestamp;pressure;altitude;pressure_sealevel;temperature;humidity
65754;BME280;52488;47.502;18.940;2023-03-03T00:00:54;98261.19;;;1.94;95.13
65754;BME280;52488;47.502;18.940;2023-03-03T00:01:57;98256.59;;;1.89;95.28
65754;BME280;52488;47.502;18.940;2023-03-03T00:03:03;98260.56;;;1.88;95.54
65754;BME280;52488;47.502;18.940;2023-03-03T00:04:07;98265.75;;;1.85;95.72
65754;BME280;52488;47.502;18.940;2023-03-03T00:05:10;98261.06;;;1.86;95.84
65754;BME280;52488;47.502;18.940;2023-03-03T00:06:17;98260.78;;;1.90;95.95
65754;BME280;52488;47.502;18.940;2023-03-03T00:07:20;98255.75;;;1.94;95.98
65754;BME280;52488;47.502;18.940;2023-03-03T00:08:25;98258.69;;;1.96;96.02
65754;BME280;52488;47.502;18.940;2023-03-03T00:09:28;98256.00;;;1.96;96.09
65754;BME280;52488;47.502;18.940;2023-03-03T00:10:31;98263.37;;;1.95;96.13
65754;BME280;52488;47.502;18.940;2023-03-03T00:11:34;98257.97;;;1.95;96.13
65754;BME280;52488;47.502;18.940;2023-03-03T00:12:46;98263.06;;;1.99;96.10
65754;BME280;52488;47.502;18.940;2023-03-03T00:13:52;98252.75;;;2.10;95.95
65754;BME280;52488;47.502;18.940;2023-03-03T00:14:56;98251.22;;;2.28;95.53
65754;BME280;52488;47.502;18.940;2023-03-03T00:17:29;98250.88;;;2.45;94.95
65754;BME280;52488;47.502;18.940;2023-03-03T00:18:35;98244.09;;;2.38;95.18
65754;BME280;52488;47.502;18.940;2023-03-03T00:19:40;98244.44;;;2.35;95.49
65754;BME280;52488;47.502;18.940;2023-03-03T00:20:49;98246.63;;;2.23;95.63
65754;BME280;52488;47.502;18.940;2023-03-03T00:21:56;98241.41;;;2.12;95.74
65754;BME280;52488;47.502;18.940;2023-03-03T00:24:36;98246.22;;;2.06;96.20
65754;BME280;52488;47.502;18.940;2023-03-03T00:25:42;98240.03;;;2.05;96.38
65754;BME280;52488;47.502;18.940;2023-03-03T00:26:50;98239.84;;;2.17;96.48
65754;BME280;52488;47.502;18.940;2023-03-03T00:27:53;98248.50;;;2.28;96.24
65754;BME280;52488;47.502;18.940;2023-03-03T00:28:56;98248.72;;;2.17;96.08
65754;BME280;52488;47.502;18.940;2023-03-03T00:30:00;98247.87;;;2.09;96.24
65754;BME280;52488;47.502;18.940;2023-03-03T00:31:24;98241.81;;;2.03;96.44
65754;BME280;52488;47.502;18.940;2023-03-03T00:32:43;98242.13;;;1.99;96.62
65754;BME280;52488;47.502;18.940;2023-03-03T00:33:53;98239.94;;;1.98;96.88
65754;BME280;52488;47.502;18.940;2023-03-03T00:35:15;98235.03;;;2.09;96.90
65754;BME280;52488;47.502;18.940;2023-03-03T00:36:27;98246.19;;;2.32;96.30
65754;BME280;52488;47.502;18.940;2023-03-03T00:37:34;98241.59;;;2.27;95.94
65754;BME280;52488;47.502;18.940;2023-03-03T00:38:37;98234.94;;;2.28;95.92
65754;BME280;52488;47.502;18.940;2023-03-03T00:39:40;98233.06;;;2.23;96.01
65754;BME280;52488;47.502;18.940;2023-03-03T00:40:44;98229.53;;;2.28;96.15
65754;BME280;52488;47.502;18.940;2023-03-03T00:41:48;98240.69;;;2.25;96.17
65754;BME280;52488;47.502;18.940;2023-03-03T00:42:55;98239.63;;;2.15;96.35
65754;BME280;52488;47.502;18.940;2023-03-03T00:45:48;98236.69;;;1.99;96.84
65754;BME280;52488;47.502;18.940;2023-03-03T00:46:52;98230.88;;;1.95;97.10
65754;BME280;52488;47.502;18.940;2023-03-03T00:47:57;98238.06;;;1.93;97.29
65754;BME280;52488;47.502;18.940;2023-03-03T00:49:01;98232.22;;;1.89;97.35
65754;BME280;52488;47.502;18.940;2023-03-03T00:52:26;98235.25;;;2.25;96.81
65754;BME280;52488;47.502;18.940;2023-03-03T00:53:30;98233.06;;;2.23;96.80
65754;BME280;52488;47.502;18.940;2023-03-03T00:54:33;98227.66;;;2.23;96.96
65754;BME280;52488;47.502;18.940;2023-03-03T00:55:36;98224.72;;;2.21;97.04
65754;BME280;52488;47.502;18.940;2023-03-03T00:56:39;98233.28;;;2.12;97.11
65754;BME280;52488;47.502;18.940;2023-03-03T00:57:42;98223.78;;;2.05;97.10
65754;BME280;52488;47.502;18.940;2023-03-03T00:58:45;98227.34;;;2.00;97.14
65754;BME280;52488;47.502;18.940;2023-03-03T00:59:49;98227.84;;;1.99;97.26
65754;BME280;52488;47.502;18.940;2023-03-03T01:00:53;98226.28;;;2.03;97.42
65754;BME280;52488;47.502;18.940;2023-03-03T01:01:58;98223.78;;;2.05;97.42
65754;BME280;52488;47.502;18.940;2023-03-03T01:03:04;98221.59;;;2.04;97.39
65754;BME280;52488;47.502;18.940;2023-03-03T01:04:07;98217.97;;;2.01;97.47
65754;BME280;52488;47.502;18.940;2023-03-03T01:05:15;98221.41;;;2.02;97.56
65754;BME280;52488;47.502;18.940;2023-03-03T01:06:18;98215.22;;;2.15;97.60
65754;BME280;52488;47.502;18.940;2023-03-03T01:07:22;98217.97;;;2.28;97.33
65754;BME280;52488;47.502;18.940;2023-03-03T01:08:25;98212.13;;;2.24;97.15
65754;BME280;52488;47.502;18.940;2023-03-03T01:09:28;98215.34;;;2.22;97.32
65754;BME280;52488;47.502;18.940;2023-03-03T01:10:34;98214.81;;;2.24;97.49
65754;BME280;52488;47.502;18.940;2023-03-03T01:11:38;98211.28;;;2.29;97.54
65754;BME280;52488;47.502;18.940;2023-03-03T01:12:41;98210.31;;;2.26;97.53
65754;BME280;52488;47.502;18.940;2023-03-03T01:13:46;98214.41;;;2.20;97.51
65754;BME280;52488;47.502;18.940;2023-03-03T01:14:50;98208.34;;;2.14;97.50
65754;BME280;52488;47.502;18.940;2023-03-03T01:15:54;98210.97;;;2.06;97.37
65754;BME280;52488;47.502;18.940;2023-03-03T01:16:57;98209.59;;;1.99;97.24
65754;BME280;52488;47.502;18.940;2023-03-03T01:18:01;98213.78;;;2.00;97.44
65754;BME280;52488;47.502;18.940;2023-03-03T01:19:04;98210.75;;;2.04;97.68
65754;BME280;52488;47.502;18.940;2023-03-03T01:20:10;98211.19;;;2.08;97.85
65754;BME280;52488;47.502;18.940;2023-03-03T01:21:13;98207.12;;;2.28;97.70
65754;BME280;52488;47.502;18.940;2023-03-03T01:22:16;98210.84;;;2.38;97.38
65754;BME280;52488;47.502;18.940;2023-03-03T01:23:20;98214.28;;;2.38;97.27
65754;BME280;52488;47.502;18.940;2023-03-03T01:24:23;98214.59;;;2.35;97.35
65754;BME280;52488;47.502;18.940;2023-03-03T01:25:26;98209.91;;;2.35;97.53
65754;BME280;52488;47.502;18.940;2023-03-03T01:26:29;98205.75;;;2.34;97.65
65754;BME280;52488;47.502;18.940;2023-03-03T01:27:34;98208.34;;;2.40;97.67
65754;BME280;52488;47.502;18.940;2023-03-03T01:28:37;98210.81;;;2.51;97.47
65754;BME280;52488;47.502;18.940;2023-03-03T01:29:41;98211.75;;;2.54;97.10
65754;BME280;52488;47.502;18.940;2023-03-03T01:30:44;98203.44;;;2.38;97.00
65754;BME280;52488;47.502;18.940;2023-03-03T01:31:47;98202.53;;;2.23;97.21
65754;BME280;52488;47.502;18.940;2023-03-03T01:32:51;98205.34;;;2.17;97.62
65754;BME280;52488;47.502;18.940;2023-03-03T01:33:54;98203.47;;;2.12;97.90
65754;BME280;52488;47.502;18.940;2023-03-03T01:34:57;98203.25;;;2.10;98.02
65754;BME280;52488;47.502;18.940;2023-03-03T01:36:00;98203.66;;;2.14;98.33
65754;BME280;52488;47.502;18.940;2023-03-03T01:37:03;98205.13;;;2.15;98.36
65754;BME280;52488;47.502;18.940;2023-03-03T01:38:06;98192.91;;;2.22;98.42
65754;BME280;52488;47.502;18.940;2023-03-03T01:39:10;98195.22;;;2.31;98.27
65754;BME280;52488;47.502;18.940;2023-03-03T01:40:25;98194.16;;;2.21;98.11
65754;BME280;52488;47.502;18.940;2023-03-03T01:41:29;98189.28;;;2.19;98.26
65754;BME280;52488;47.502;18.940;2023-03-03T01:42:35;98193.34;;;2.26;98.31
65754;BME280;52488;47.502;18.940;2023-03-03T01:43:43;98183.84;;;2.32;98.06
65754;BME280;52488;47.502;18.940;2023-03-03T01:44:47;98193.09;;;2.37;97.85
65754;BME280;52488;47.502;18.940;2023-03-03T01:48:18;98191.22;;;2.45;97.56
65754;BME280;52488;47.502;18.940;2023-03-03T01:49:38;98190.81;;;2.41;97.52
65754;BME280;52488;47.502;18.940;2023-03-03T01:51:53;98187.56;;;2.43;97.81
65754;BME280;52488;47.502;18.940;2023-03-03T01:52:58;98183.81;;;2.46;97.74
65754;BME280;52488;47.502;18.940;2023-03-03T01:54:09;98184.75;;;2.48;97.68
65754;BME280;52488;47.502;18.940;2023-03-03T01:55:25;98181.50;;;2.50;97.61
65754;BME280;52488;47.502;18.940;2023-03-03T01:56:31;98188.19;;;2.49;97.71
65754;BME280;52488;47.502;18.940;2023-03-03T01:57:39;98181.91;;;2.54;97.78
65754;BME280;52488;47.502;18.940;2023-03-03T01:58:48;98181.00;;;2.51;97.82
65754;BME280;52488;47.502;18.940;2023-03-03T01:59:52;98181.53;;;2.36;98.02
65754;BME280;52488;47.502;18.940;2023-03-03T02:01:00;98176.75;;;2.29;98.40
65754;BME280;52488;47.502;18.940;2023-03-03T02:02:04;98185.53;;;2.22;98.67
65754;BME280;52488;47.502;18.940;2023-03-03T02:03:08;98183.66;;;2.17;98.96
65754;BME280;52488;47.502;18.940;2023-03-03T02:04:12;98183.25;;;2.13;99.22
65754;BME280;52488;47.502;18.940;2023-03-03T02:05:15;98187.41;;;2.14;99.45
65754;BME280;52488;47.502;18.940;2023-03-03T02:06:21;98172.81;;;2.17;99.64
65754;BME280;52488;47.502;18.940;2023-03-03T02:07:27;98186.16;;;2.28;99.72
65754;BME280;52488;47.502;18.940;2023-03-03T02:08:51;98181.84;;;2.33;99.58
65754;BME280;52488;47.502;18.940;2023-03-03T02:11:04;98184.75;;;2.48;99.46
65754;BME280;52488;47.502;18.940;2023-03-03T02:12:10;98179.53;;;2.50;99.49
65754;BME280;52488;47.502;18.940;2023-03-03T02:13:14;98185.28;;;2.47;99.60
65754;BME280;52488;47.502;18.940;2023-03-03T02:14:17;98189.03;;;2.44;99.80
65754;BME280;52488;47.502;18.940;2023-03-03T02:16:25;98179.13;;;2.46;100.00
65754;BME280;52488;47.502;18.940;2023-03-03T02:17:28;98187.03;;;2.57;100.00
65754;BME280;52488;47.502;18.940;2023-03-03T02:18:31;98190.16;;;2.61;100.00
65754;BME280;52488;47.502;18.940;2023-03-03T02:20:19;98176.53;;;2.75;99.93
65754;BME280;52488;47.502;18.940;2023-03-03T02:21:22;98186.00;;;2.81;99.73
65754;BME280;52488;47.502;18.940;2023-03-03T02:22:40;98176.69;;;2.90;99.84
65754;BME280;52488;47.502;18.940;2023-03-03T02:24:59;98179.53;;;2.84;100.00
65754;BME280;52488;47.502;18.940;2023-03-03T02:27:08;98177.50;;;2.98;100.00
65754;BME280;52488;47.502;18.940;2023-03-03T02:28:11;98180.28;;;3.06;100.00
65754;BME280;52488;47.502;18.940;2023-03-03T02:29:14;98183.72;;;3.06;100.00
65754;BME280;52488;47.502;18.940;2023-03-03T02:30:20;98175.50;;;2.99;100.00
65754;BME280;52488;47.502;18.940;2023-03-03T02:31:27;98180.75;;;2.97;100.00
65754;BME280;52488;47.502;18.940;2023-03-03T02:32:30;98187.22;;;2.94;100.00
65754;BME280;52488;47.502;18.940;2023-03-03T02:33:33;98176.16;;;2.91;100.00
65754;BME280;52488;47.502;18.940;2023-03-03T02:34:48;98181.41;;;2.89;100.00
65754;BME280;52488;47.502;18.940;2023-03-03T02:35:51;98182.50;;;2.94;100.00
65754;BME280;52488;47.502;18.940;2023-03-03T02:36:55;98182.25;;;3.05;100.00
65754;BME280;52488;47.502;18.940;2023-03-03T02:38:06;98176.69;;;3.11;100.00
65754;BME280;52488;47.502;18.940;2023-03-03T02:40:19;98179.09;;;3.14;100.00
65754;BME280;52488;47.502;18.940;2023-03-03T02:42:45;98183.00;;;3.27;100.00
65754;BME280;52488;47.502;18.940;2023-03-03T02:44:08;98181.00;;;3.27;100.00
65754;BME280;52488;47.502;18.940;2023-03-03T02:45:12;98179.91;;;3.23;100.00
65754;BME280;52488;47.502;18.940;2023-03-03T02:46:15;98176.91;;;3.13;100.00
65754;BME280;52488;47.502;18.940;2023-03-03T02:47:18;98171.63;;;3.07;100.00
65754;BME280;52488;47.502;18.940;2023-03-03T02:48:21;98169.22;;;3.04;100.00
65754;BME280;52488;47.502;18.940;2023-03-03T02:49:29;98157.63;;;3.03;100.00
65754;BME280;52488;47.502;18.940;2023-03-03T02:50:33;98169.69;;;3.15;100.00
65754;BME280;52488;47.502;18.940;2023-03-03T02:51:37;98164.94;;;3.29;100.00
65754;BME280;52488;47.502;18.940;2023-03-03T02:52:40;98164.44;;;3.38;100.00
65754;BME280;52488;47.502;18.940;2023-03-03T02:53:43;98167.50;;;3.35;99.98
65754;BME280;52488;47.502;18.940;2023-03-03T02:54:46;98166.19;;;3.28;100.00
65754;BME280;52488;47.502;18.940;2023-03-03T02:55:49;98162.88;;;3.22;100.00
65754;BME280;52488;47.502;18.940;2023-03-03T02:56:52;98161.94;;;3.20;100.00
65754;BME280;52488;47.502;18.940;2023-03-03T02:57:56;98163.41;;;3.21;100.00
65754;BME280;52488;47.502;18.940;2023-03-03T02:58:59;98167.91;;;3.18;100.00
65754;BME280;52488;47.502;18.940;2023-03-03T03:00:03;98163.41;;;3.21;100.00
65754;BME280;52488;47.502;18.940;2023-03-03T03:01:06;98156.19;;;3.23;100.00
65754;BME280;52488;47.502;18.940;2023-03-03T03:02:09;98157.09;;;3.26;100.00
65754;BME280;52488;47.502;18.940;2023-03-03T03:03:13;98157.31;;;3.28;100.00
65754;BME280;52488;47.502;18.940;2023-03-03T03:04:22;98157.50;;;3.30;100.00
65754;BME280;52488;47.502;18.940;2023-03-03T03:05:26;98159.50;;;3.29;100.00
65754;BME280;52488;47.502;18.940;2023-03-03T03:06:29;98156.66;;;3.35;100.00
65754;BME280;52488;47.502;18.940;2023-03-03T03:07:32;98155.44;;;3.43;100.00
65754;BME280;52488;47.502;18.940;2023-03-03T03:08:35;98155.81;;;3.48;100.00
65754;BME280;52488;47.502;18.940;2023-03-03T03:09:38;98150.00;;;3.43;100.00
65754;BME280;52488;47.502;18.940;2023-03-03T03:10:41;98159.94;;;3.41;100.00
65754;BME280;52488;47.502;18.940;2023-03-03T03:11:44;98148.53;;;3.42;100.00
65754;BME280;52488;47.502;18.940;2023-03-03T03:12:48;98150.72;;;3.44;100.00
65754;BME280;52488;47.502;18.940;2023-03-03T03:13:51;98146.41;;;3.49;100.00
65754;BME280;52488;47.502;18.940;2023-03-03T03:14:54;98153.84;;;3.48;100.00
65754;BME280;52488;47.502;18.940;2023-03-03T03:15:57;98150.94;;;3.46;100.00
65754;BME280;52488;47.502;18.940;2023-03-03T03:17:01;98150.06;;;3.51;100.00
65754;BME280;52488;47.502;18.940;2023-03-03T03:18:04;98151.84;;;3.49;100.00
65754;BME280;52488;47.502;18.940;2023-03-03T03:19:07;98148.75;;;3.44;100.00
65754;BME280;52488;47.502;18.940;2023-03-03T03:20:10;98144.56;;;3.43;100.00
65754;BME280;52488;47.502;18.940;2023-03-03T03:21:13;98146.75;;;3.45;100.00
65754;BME280;52488;47.502;18.940;2023-03-03T03:22:16;98141.03;;;3.56;100.00
65754;BME280;52488;47.502;18.940;2023-03-03T03:23:21;98143.25;;;3.65;100.00
65754;BME280;52488;47.502;18.940;2023-03-03T03:24:24;98147.78;;;3.63;99.88
65754;BME280;52488;47.502;18.940;2023-03-03T03:25:27;98144.84;;;3.61;99.93
65754;BME280;52488;47.502;18.940;2023-03-03T03:26:30;98145.75;;;3.56;100.00
65754;BME280;52488;47.502;18.940;2023-03-03T03:27:33;98143.56;;;3.54;100.00
65754;BME280;52488;47.502;18.940;2023-03-03T03:28:37;98144.81;;;3.53;100.00
65754;BME280;52488;47.502;18.940;2023-03-03T03:29:40;98141.37;;;3.53;100.00
65754;BME280;52488;47.502;18.940;2023-03-03T03:30:43;98146.81;;;3.53;100.00
65754;BME280;52488;47.502;18.940;2023-03-03T03:31:47;98143.91;;;3.51;100.00
65754;BME280;52488;47.502;18.940;2023-03-03T03:32:50;98142.09;;;3.53;100.00
65754;BME280;52488;47.502;18.940;2023-03-03T03:33:53;98141.03;;;3.56;100.00
65754;BME280;52488;47.502;18.940;2023-03-03T03:34:56;98144.66;;;3.59;100.00
65754;BME280;52488;47.502;18.940;2023-03-03T03:36:00;98142.13;;;3.61;100.00
65754;BME280;52488;47.502;18.940;2023-03-03T03:37:03;98144.66;;;3.59;100.00
65754;BME280;52488;47.502;18.940;2023-03-03T03:38:06;98142.50;;;3.57;100.00
65754;BME280;52488;47.502;18.940;2023-03-03T03:39:09;98139.06;;;3.57;100.00
65754;BME280;52488;47.502;18.940;2023-03-03T03:40:12;98138.69;;;3.60;100.00
65754;BME280;52488;47.502;18.940;2023-03-03T03:41:15;98139.81;;;3.65;100.00
65754;BME280;52488;47.502;18.940;2023-03-03T03:42:18;98137.88;;;3.73;100.00
65754;BME280;52488;47.502;18.940;2023-03-03T03:43:21;98137.75;;;3.79;99.78
65754;BME280;52488;47.502;18.940;2023-03-03T03:44:24;98142.09;;;3.82;99.54
65754;BME280;52488;47.502;18.940;2023-03-03T03:45:27;98129.22;;;3.82;99.42
65754;BME280;52488;47.502;18.940;2023-03-03T03:46:31;98139.03;;;3.85;99.28
65754;BME280;52488;47.502;18.940;2023-03-03T03:47:34;98128.72;;;3.84;99.13
65754;BME280;52488;47.502;18.940;2023-03-03T03:48:38;98128.88;;;3.78;99.12
65754;BME280;52488;47.502;18.940;2023-03-03T03:49:41;98128.66;;;3.76;99.23
65754;BME280;52488;47.502;18.940;2023-03-03T03:50:46;98124.16;;;3.79;99.27
65754;BME280;52488;47.502;18.940;2023-03-03T03:51:49;98131.75;;;3.80;99.20
65754;BME280;52488;47.502;18.940;2023-03-03T03:52:52;98126.31;;;3.80;99.13
65754;BME280;52488;47.502;18.940;2023-03-03T03:54:00;98121.94;;;3.77;99.09
65754;BME280;52488;47.502;18.940;2023-03-03T03:55:04;98127.38;;;3.77;99.06
65754;BME280;52488;47.502;18.940;2023-03-03T03:56:07;98125.59;;;3.80;99.05
65754;BME280;52488;47.502;18.940;2023-03-03T03:57:10;98124.88;;;3.79;99.00
65754;BME280;52488;47.502;18.940;2023-03-03T03:58:16;98121.94;;;3.77;99.04
65754;BME280;52488;47.502;18.940;2023-03-03T03:59:20;98112.34;;;3.76;99.11
65754;BME280;52488;47.502;18.940;2023-03-03T04:00:23;98120.31;;;3.74;99.13
65754;BME280;52488;47.502;18.940;2023-03-03T04:01:27;98120.50;;;3.76;99.16
65754;BME280;52488;47.502;18.940;2023-03-03T04:02:30;98118.91;;;3.81;99.02
65754;BME280;52488;47.502;18.940;2023-03-03T04:03:34;98116.00;;;3.79;98.85
65754;BME280;52488;47.502;18.940;2023-03-03T04:04:37;98123.44;;;3.78;98.78
65754;BME280;52488;47.502;18.940;2023-03-03T04:05:40;98121.22;;;3.77;98.82
65754;BME280;52488;47.502;18.940;2023-03-03T04:06:43;98123.47;;;3.86;98.70
65754;BME280;52488;47.502;18.940;2023-03-03T04:07:46;98124.38;;;3.88;98.39
65754;BME280;52488;47.502;18.940;2023-03-03T04:08:49;98115.53;;;3.95;98.08
65754;BME280;52488;47.502;18.940;2023-03-03T04:09:52;98110.28;;;3.97;97.81
65754;BME280;52488;47.502;18.940;2023-03-03T04:10:55;98113.00;;;3.97;97.69
65754;BME280;52488;47.502;18.940;2023-03-03T04:11:59;98118.25;;;3.95;97.69
65754;BME280;52488;47.502;18.940;2023-03-03T04:13:02;98115.53;;;3.95;97.73
65754;BME280;52488;47.502;18.940;2023-03-03T04:14:06;98120.97;;;3.95;97.79
65754;BME280;52488;47.502;18.940;2023-03-03T04:15:11;98106.84;;;3.97;97.78
65754;BME280;52488;47.502;18.940;2023-03-03T04:16:14;98119.37;;;4.00;97.71
65754;BME280;52488;47.502;18.940;2023-03-03T04:17:20;98116.66;;;4.00;97.64
65754;BME280;52488;47.502;18.940;2023-03-03T04:18:24;98111.94;;;4.01;97.59
65754;BME280;52488;47.502;18.940;2023-03-03T04:19:27;98109.56;;;3.97;97.69
65754;BME280;52488;47.502;18.940;2023-03-03T04:20:30;98112.63;;;3.93;97.82
65754;BME280;52488;47.502;18.940;2023-03-03T04:21:34;98114.97;;;3.89;97.96
65754;BME280;52488;47.502;18.940;2023-03-03T04:22:37;98112.59;;;3.86;98.09
65754;BME280;52488;47.502;18.940;2023-03-03T04:23:41;98123.28;;;3.84;98.24
65754;BME280;52488;47.502;18.940;2023-03-03T04:24:44;98110.59;;;3.86;98.35
65754;BME280;52488;47.502;18.940;2023-03-03T04:25:50;98112.59;;;3.86;98.42
65754;BME280;52488;47.502;18.940;2023-03-03T04:26:53;98100.81;;;3.83;98.45
65754;BME280;52488;47.502;18.940;2023-03-03T04:27:56;98108.59;;;3.87;98.51
65754;BME280;52488;47.502;18.940;2023-03-03T04:28:59;98112.44;;;3.91;98.48
65754;BME280;52488;47.502;18.940;2023-03-03T04:30:04;98108.13;;;3.96;98.36
65754;BME280;52488;47.502;18.940;2023-03-03T04:31:08;98108.69;;;4.02;98.08
65754;BME280;52488;47.502;18.940;2023-03-03T04:32:11;98104.69;;;4.03;97.80
65754;BME280;52488;47.502;18.940;2023-03-03T04:33:14;98103.97;;;4.03;97.57
65754;BME280;52488;47.502;18.940;2023-03-03T04:34:17;98106.88;;;4.05;97.44
65754;BME280;52488;47.502;18.940;2023-03-03T04:35:20;98109.78;;;4.07;97.32
65754;BME280;52488;47.502;18.940;2023-03-03T04:36:23;98105.25;;;4.09;97.18
65754;BME280;52488;47.502;18.940;2023-03-03T04:37:26;98097.66;;;4.08;97.15
65754;BME280;52488;47.502;18.940;2023-03-03T04:38:29;98103.09;;;4.08;97.20
65754;BME280;52488;47.502;18.940;2023-03-03T04:39:36;98097.81;;;4.10;97.14
65754;BME280;52488;47.502;18.940;2023-03-03T04:40:40;98106.19;;;4.12;97.03
65754;BME280;52488;47.502;18.940;2023-03-03T04:41:44;98098.59;;;4.18;96.79
65754;BME280;52488;47.502;18.940;2023-03-03T04:42:47;98104.94;;;4.20;96.56
65754;BME280;52488;47.502;18.940;2023-03-03T04:43:50;98107.12;;;4.22;96.38
65754;BME280;52488;47.502;18.940;2023-03-03T04:44:53;98101.69;;;4.22;96.24
65754;BME280;52488;47.502;18.940;2023-03-03T04:45:56;98105.16;;;4.22;96.19
65754;BME280;52488;47.502;18.940;2023-03-03T04:46:59;98100.94;;;4.21;96.17
65754;BME280;52488;47.502;18.940;2023-03-03T04:48:02;98102.75;;;4.19;96.20
65754;BME280;52488;47.502;18.940;2023-03-03T04:49:06;98101.31;;;4.18;96.23
65754;BME280;52488;47.502;18.940;2023-03-03T04:50:13;98100.75;;;4.12;96.21
65754;BME280;52488;47.502;18.940;2023-03-03T04:51:16;98104.53;;;4.09;96.19
65754;BME280;52488;47.502;18.940;2023-03-03T04:52:20;98098.91;;;4.07;96.28
65754;BME280;52488;47.502;18.940;2023-03-03T04:53:23;98109.78;;;4.07;96.35
65754;BME280;52488;47.502;18.940;2023-03-03T04:54:26;98102.91;;;4.06;96.37
65754;BME280;52488;47.502;18.940;2023-03-03T04:55:29;98110.50;;;4.07;96.40
65754;BME280;52488;47.502;18.940;2023-03-03T04:56:33;98105.81;;;4.08;96.39
65754;BME280;52488;47.502;18.940;2023-03-03T04:57:36;98101.09;;;4.08;96.39
65754;BME280;52488;47.502;18.940;2023-03-03T04:58:39;98105.25;;;4.09;96.40
65754;BME280;52488;47.502;18.940;2023-03-03T04:59:42;98110.34;;;4.13;96.31
65754;BME280;52488;47.502;18.940;2023-03-03T05:00:46;98103.66;;;4.14;96.20
65754;BME280;52488;47.502;18.940;2023-03-03T05:01:50;98100.94;;;4.14;96.12
65754;BME280;52488;47.502;18.940;2023-03-03T05:02:52;98101.47;;;4.12;96.08
65754;BME280;52488;47.502;18.940;2023-03-03T05:03:55;98103.66;;;4.14;96.03
65754;BME280;52488;47.502;18.940;2023-03-03T05:04:58;98107.28;;;4.16;96.01
65754;BME280;52488;47.502;18.940;2023-03-03T05:06:01;98108.94;;;4.19;95.92
65754;BME280;52488;47.502;18.940;2023-03-03T05:07:04;98110.59;;;4.22;95.72
65754;BME280;52488;47.502;18.940;2023-03-03T05:08:07;98108.03;;;4.24;95.52
65754;BME280;52488;47.502;18.940;2023-03-03T05:09:10;98112.22;;;4.26;95.40
65754;BME280;52488;47.502;18.940;2023-03-03T05:10:13;98106.03;;;4.25;95.31
65754;BME280;52488;47.502;18.940;2023-03-03T05:11:16;98103.87;;;4.23;95.24
65754;BME280;52488;47.502;18.940;2023-03-03T05:12:19;98111.31;;;4.23;95.22
65754;BME280;52488;47.502;18.940;2023-03-03T05:13:22;98108.38;;;4.21;95.17
65754;BME280;52488;47.502;18.940;2023-03-03T05:14:26;98109.09;;;4.21;95.17
65754;BME280;52488;47.502;18.940;2023-03-03T05:15:29;98110.22;;;4.26;95.09
65754;BME280;52488;47.502;18.940;2023-03-03T05:16:32;98102.44;;;4.30;94.83
65754;BME280;52488;47.502;18.940;2023-03-03T05:17:36;98107.16;;;4.30;94.58
65754;BME280;52488;47.502;18.940;2023-03-03T05:18:39;98103.31;;;4.25;94.52
65754;BME280;52488;47.502;18.940;2023-03-03T05:19:42;98101.16;;;4.23;94.52
65754;BME280;52488;47.502;18.940;2023-03-03T05:20:45;98112.75;;;4.24;94.53
65754;BME280;52488;47.502;18.940;2023-03-03T05:21:48;98098.59;;;4.18;94.41
65754;BME280;52488;47.502;18.940;2023-03-03T05:22:51;98111.97;;;4.16;94.35
65754;BME280;52488;47.502;18.940;2023-03-03T05:23:54;98109.25;;;4.16;94.41
65754;BME280;52488;47.502;18.940;2023-03-03T05:24:58;98109.25;;;4.16;94.47
65754;BME280;52488;47.502;18.940;2023-03-03T05:26:01;98106.75;;;4.18;94.46
65754;BME280;52488;47.502;18.940;2023-03-03T05:27:04;98103.66;;;4.21;94.30
65754;BME280;52488;47.502;18.940;2023-03-03T05:28:08;98111.81;;;4.21;94.17
65754;BME280;52488;47.502;18.940;2023-03-03T05:29:11;98109.84;;;4.22;94.11
65754;BME280;52488;47.502;18.940;2023-03-03T05:30:14;98107.84;;;4.22;94.07
65754;BME280;52488;47.502;18.940;2023-03-03T05:31:17;98105.66;;;4.21;94.02
65754;BME280;52488;47.502;18.940;2023-03-03T05:32:20;98109.66;;;4.20;94.06
65754;BME280;52488;47.502;18.940;2023-03-03T05:33:23;98115.28;;;4.22;94.10
65754;BME280;52488;47.502;18.940;2023-03-03T05:34:27;98114.38;;;4.27;94.01
65754;BME280;52488;47.502;18.940;2023-03-03T05:35:30;98115.50;;;4.32;93.82
65754;BME280;52488;47.502;18.940;2023-03-03T05:36:33;98112.59;;;4.37;93.48
65754;BME280;52488;47.502;18.940;2023-03-03T05:37:36;98111.53;;;4.40;93.07
65754;BME280;52488;47.502;18.940;2023-03-03T05:38:41;98117.87;;;4.43;92.76
65754;BME280;52488;47.502;18.940;2023-03-03T05:39:44;98117.16;;;4.42;92.64
65754;BME280;52488;47.502;18.940;2023-03-03T05:40:47;98120.81;;;4.45;92.55
65754;BME280;52488;47.502;18.940;2023-03-03T05:41:50;98124.41;;;4.40;92.49
65754;BME280;52488;47.502;18.940;2023-03-03T05:42:53;98124.94;;;4.38;92.53
65754;BME280;52488;47.502;18.940;2023-03-03T05:43:57;98121.31;;;4.36;92.57
65754;BME280;52488;47.502;18.940;2023-03-03T05:44:59;98126.19;;;4.37;92.61
65754;BME280;52488;47.502;18.940;2023-03-03T05:46:03;98120.25;;;4.39;92.59
65754;BME280;52488;47.502;18.940;2023-03-03T05:47:06;98127.84;;;4.40;92.59
65754;BME280;52488;47.502;18.940;2023-03-03T05:48:09;98127.66;;;4.38;92.59
65754;BME280;52488;47.502;18.940;2023-03-03T05:49:12;98124.75;;;4.36;92.58
65754;BME280;52488;47.502;18.940;2023-03-03T05:50:15;98122.59;;;4.35;92.55
65754;BME280;52488;47.502;18.940;2023-03-03T05:51:19;98129.84;;;4.40;92.59
65754;BME280;52488;47.502;18.940;2023-03-03T05:52:22;98129.47;;;4.43;92.52
65754;BME280;52488;47.502;18.940;2023-03-03T05:53:27;98125.69;;;4.46;92.36
65754;BME280;52488;47.502;18.940;2023-03-03T05:54:30;98131.69;;;4.53;92.04
65754;BME280;52488;47.502;18.940;2023-03-03T05:55:34;98129.88;;;4.55;91.79
65754;BME280;52488;47.502;18.940;2023-03-03T05:56:37;98130.62;;;4.56;91.68
65754;BME280;52488;47.502;18.940;2023-03-03T05:57:40;98126.09;;;4.58;91.57
65754;BME280;52488;47.502;18.940;2023-03-03T05:58:43;98128.47;;;4.62;91.36